createdAt,value
2023-03-21T00:01:02.214Z,101355.63
2023-03-21T00:03:30.909Z,101365.50
2023-03-21T00:05:58.676Z,101356.53
2023-03-21T00:08:26.928Z,101356.84
2023-03-21T00:11:02.723Z,101364.50
2023-03-21T00:13:38.581Z,101370.56
2023-03-21T00:19:06.584Z,101375.59
2023-03-21T00:21:55.580Z,101374.06
2023-03-21T00:24:26.007Z,101360.59
2023-03-21T00:26:53.968Z,101358.53
2023-03-21T00:29:21.551Z,101363.66
2023-03-21T00:31:49.957Z,101356.66
2023-03-21T00:34:22.580Z,101359.78
2023-03-21T00:36:59.172Z,101364.56
2023-03-21T00:39:26.812Z,101365.81
2023-03-21T00:41:54.374Z,101361.75
2023-03-21T00:44:23.551Z,101358.72
2023-03-21T00:47:06.311Z,101358.41
2023-03-21T00:49:34.378Z,101354.72
2023-03-21T00:52:15.296Z,101351.63
2023-03-21T00:54:46.138Z,101358.41
2023-03-21T00:57:14.079Z,101348.25
2023-03-21T00:59:41.673Z,101345.81
2023-03-21T01:02:09.112Z,101354.84
2023-03-21T01:04:37.378Z,101344.03
2023-03-21T01:07:04.790Z,101347.53
2023-03-21T01:09:32.936Z,101344.06
2023-03-21T01:12:00.600Z,101351.88
2023-03-21T01:14:27.990Z,101342.69
2023-03-21T01:16:55.871Z,101341.53
2023-03-21T01:19:44.339Z,101335.47
2023-03-21T01:22:15.800Z,101346.59
2023-03-21T01:24:53.024Z,101346.09
2023-03-21T01:27:22.760Z,101353.31
2023-03-21T01:29:50.777Z,101355.91
2023-03-21T01:32:18.149Z,101356.84
2023-03-21T01:34:45.680Z,101349.25
2023-03-21T01:37:20.077Z,101350.00
2023-03-21T01:39:47.516Z,101343.28
2023-03-21T01:42:15.141Z,101349.91
2023-03-21T01:45:06.405Z,101351.31
2023-03-21T01:47:33.828Z,101343.06
2023-03-21T01:50:03.919Z,101342.31
2023-03-21T01:52:38.654Z,101339.66
2023-03-21T01:55:13.864Z,101333.25
2023-03-21T01:58:05.492Z,101345.78
2023-03-21T02:00:36.642Z,101340.69
2023-03-21T02:03:17.049Z,101336.69
2023-03-21T02:06:00.873Z,101336.22
2023-03-21T02:08:39.680Z,101336.94
2023-03-21T02:11:10.239Z,101331.19
2023-03-21T02:13:37.766Z,101336.69
2023-03-21T02:16:28.987Z,101330.97
2023-03-21T02:19:22.977Z,101326.72
2023-03-21T02:22:29.193Z,101342.53
2023-03-21T02:25:21.857Z,101332.88
2023-03-21T02:28:14.971Z,101336.47
2023-03-21T02:30:52.727Z,101334.81
2023-03-21T02:33:38.218Z,101336.28
2023-03-21T02:36:34.253Z,101339.88
2023-03-21T02:39:08.026Z,101334.56
2023-03-21T02:41:48.795Z,101331.19
2023-03-21T02:44:24.278Z,101332.06
2023-03-21T02:47:13.894Z,101339.50
2023-03-21T02:49:58.503Z,101345.44
2023-03-21T02:52:38.516Z,101339.13
2023-03-21T02:55:15.585Z,101339.38
2023-03-21T02:57:45.395Z,101343.06
2023-03-21T03:00:19.128Z,101347.19
2023-03-21T03:02:48.807Z,101348.91
2023-03-21T03:05:27.084Z,101353.25
2023-03-21T03:08:12.821Z,101342.53
2023-03-21T03:11:16.653Z,101339.88
2023-03-21T03:14:37.017Z,101331.63
2023-03-21T03:17:05.523Z,101324.81
2023-03-21T03:19:49.998Z,101344.53
2023-03-21T03:22:27.994Z,101327.56
2023-03-21T03:25:12.592Z,101337.81
2023-03-21T03:27:49.653Z,101336.63
2023-03-21T03:30:17.704Z,101327.81
2023-03-21T03:32:53.808Z,101326.16
2023-03-21T03:35:25.005Z,101332.25
2023-03-21T03:38:00.453Z,101328.25
2023-03-21T03:40:42.312Z,101320.63
2023-03-21T03:43:20.083Z,101328.59
2023-03-21T03:46:02.371Z,101323.00
2023-03-21T03:48:46.548Z,101332.31
2023-03-21T03:51:22.045Z,101333.78
2023-03-21T03:53:55.845Z,101332.03
2023-03-21T03:56:26.378Z,101328.28
2023-03-21T03:58:54.509Z,101338.38
2023-03-21T04:01:22.119Z,101325.97
2023-03-21T04:03:58.541Z,101338.47
2023-03-21T04:06:32.440Z,101329.78
2023-03-21T04:09:03.450Z,101334.44
2023-03-21T04:11:32.855Z,101330.81
2023-03-21T04:14:00.502Z,101323.41
2023-03-21T04:16:32.388Z,101329.28
2023-03-21T04:19:02.469Z,101328.16
2023-03-21T04:21:30.742Z,101325.25
2023-03-21T04:24:00.881Z,101327.38
2023-03-21T04:26:33.079Z,101322.13
2023-03-21T04:29:01.045Z,101324.97
2023-03-21T04:31:31.698Z,101326.63
2023-03-21T04:33:59.880Z,101332.34
2023-03-21T04:36:38.900Z,101332.81
2023-03-21T04:39:12.443Z,101333.78
2023-03-21T04:41:45.526Z,101325.94
2023-03-21T04:44:15.690Z,101333.31
2023-03-21T04:46:43.973Z,101331.28
2023-03-21T04:49:11.669Z,101335.09
2023-03-21T04:51:40.101Z,101336.56
2023-03-21T04:56:39.632Z,101337.84
2023-03-21T04:59:10.863Z,101325.28
2023-03-21T05:01:38.343Z,101335.81
2023-03-21T05:04:05.966Z,101334.38
2023-03-21T05:06:34.426Z,101342.44
2023-03-21T05:09:05.629Z,101329.38
2023-03-21T05:11:37.643Z,101341.09
2023-03-21T05:14:06.826Z,101335.13
2023-03-21T05:16:36.531Z,101336.81
2023-03-21T05:19:06.520Z,101344.06
2023-03-21T05:21:41.352Z,101334.38
2023-03-21T05:24:13.709Z,101345.53
2023-03-21T05:26:43.361Z,101341.78
2023-03-21T05:29:11.326Z,101355.97
2023-03-21T05:31:39.360Z,101348.47
2023-03-21T05:34:06.810Z,101349.31
2023-03-21T05:36:40.468Z,101353.56
2023-03-21T05:39:08.049Z,101360.81
2023-03-21T05:41:35.427Z,101361.31
2023-03-21T05:44:02.934Z,101368.56
2023-03-21T05:46:32.242Z,101368.47
2023-03-21T05:49:00.990Z,101367.09
2023-03-21T05:51:29.469Z,101374.13
2023-03-21T05:53:57.292Z,101369.53
2023-03-21T05:56:24.704Z,101372.19
2023-03-21T05:58:52.063Z,101372.88
2023-03-21T06:01:23.640Z,101365.78
2023-03-21T06:03:51.106Z,101368.69
2023-03-21T06:06:18.463Z,101373.06
2023-03-21T06:08:46.086Z,101364.69
2023-03-21T06:11:27.246Z,101369.63
2023-03-21T06:13:55.040Z,101360.38
2023-03-21T06:16:28.826Z,101368.59
2023-03-21T06:18:57.209Z,101375.38
2023-03-21T06:21:26.720Z,101376.84
2023-03-21T06:23:54.243Z,101370.22
2023-03-21T06:26:23.222Z,101375.78
2023-03-21T06:28:51.241Z,101377.41
2023-03-21T06:31:22.667Z,101379.03
2023-03-21T06:33:50.289Z,101381.81
2023-03-21T06:36:18.694Z,101374.56
2023-03-21T06:38:47.004Z,101375.97
2023-03-21T06:41:15.875Z,101368.63
2023-03-21T06:43:46.489Z,101366.84
2023-03-21T06:46:14.107Z,101365.84
2023-03-21T06:48:44.948Z,101367.13
2023-03-21T06:51:15.747Z,101367.34
2023-03-21T06:53:44.656Z,101369.19
2023-03-21T06:56:14.121Z,101372.38
2023-03-21T06:58:42.174Z,101366.56
2023-03-21T07:01:09.752Z,101361.38
2023-03-21T07:03:37.969Z,101368.88
2023-03-21T07:06:07.607Z,101364.31
2023-03-21T07:08:35.133Z,101370.09
2023-03-21T07:11:02.515Z,101362.06
2023-03-21T07:13:31.982Z,101357.06
2023-03-21T07:15:59.960Z,101362.16
2023-03-21T07:18:28.285Z,101356.38
2023-03-21T07:20:56.120Z,101358.50
2023-03-21T07:23:25.862Z,101362.56
2023-03-21T07:25:55.416Z,101368.94
2023-03-21T07:28:23.948Z,101371.41
2023-03-21T07:30:54.672Z,101367.16
2023-03-21T07:33:24.679Z,101375.09
2023-03-21T07:35:53.920Z,101369.31
2023-03-21T07:38:28.147Z,101367.31
2023-03-21T07:40:55.664Z,101373.00
2023-03-21T07:43:23.107Z,101372.56
2023-03-21T07:45:56.204Z,101371.88
2023-03-21T07:48:23.794Z,101378.78
2023-03-21T07:50:51.458Z,101361.69
2023-03-21T07:53:19.426Z,101372.13
2023-03-21T07:55:56.437Z,101370.16
2023-03-21T07:58:25.873Z,101369.03
2023-03-21T08:00:53.823Z,101380.22
2023-03-21T08:03:21.873Z,101373.69
2023-03-21T08:05:49.754Z,101378.53
2023-03-21T08:08:18.716Z,101378.94
2023-03-21T08:10:46.250Z,101383.88
2023-03-21T08:13:13.759Z,101377.34
2023-03-21T08:15:42.481Z,101370.06
2023-03-21T08:18:10.923Z,101376.63
2023-03-21T08:20:41.784Z,101380.19
2023-03-21T08:23:09.225Z,101377.47
2023-03-21T08:25:36.962Z,101374.97
2023-03-21T08:28:04.530Z,101366.34
2023-03-21T08:30:33.135Z,101365.31
2023-03-21T08:33:01.934Z,101354.94
2023-03-21T08:35:31.623Z,101358.63
2023-03-21T08:37:59.196Z,101360.97
2023-03-21T08:40:26.725Z,101359.00
2023-03-21T08:42:56.710Z,101356.00
2023-03-21T08:45:25.536Z,101363.09
2023-03-21T08:47:54.570Z,101349.03
2023-03-21T08:50:25.019Z,101355.94
2023-03-21T08:52:52.720Z,101350.72
2023-03-21T08:55:20.282Z,101343.63
2023-03-21T08:57:48.273Z,101352.19
2023-03-21T09:00:20.864Z,101353.59
2023-03-21T09:02:51.561Z,101360.66
2023-03-21T09:05:19.667Z,101356.97
2023-03-21T09:07:49.812Z,101351.94
2023-03-21T09:10:21.576Z,101342.56
2023-03-21T09:12:56.018Z,101354.28
2023-03-21T09:15:25.704Z,101362.41
2023-03-21T09:17:54.557Z,101363.59
2023-03-21T09:20:33.051Z,101361.41
2023-03-21T09:23:01.893Z,101359.72
2023-03-21T09:25:31.546Z,101357.88
2023-03-21T09:28:05.350Z,101359.44
2023-03-21T09:30:36.713Z,101361.22
2023-03-21T09:33:08.991Z,101352.50
2023-03-21T09:35:37.748Z,101358.03
2023-03-21T09:38:05.987Z,101349.00
2023-03-21T09:41:05.203Z,101351.59
2023-03-21T09:43:35.660Z,101343.25
2023-03-21T09:46:27.573Z,101349.47
2023-03-21T09:48:57.748Z,101348.00
2023-03-21T09:51:37.212Z,101344.75
2023-03-21T09:54:18.286Z,101342.50
2023-03-21T09:56:46.510Z,101339.69
2023-03-21T09:59:33.613Z,101336.47
2023-03-21T10:02:03.402Z,101332.06
2023-03-21T10:04:32.016Z,101338.69
2023-03-21T10:07:02.293Z,101328.41
2023-03-21T10:09:32.603Z,101327.00
2023-03-21T10:12:14.926Z,101322.41
2023-03-21T10:14:46.302Z,101316.44
2023-03-21T10:17:43.759Z,101311.63
2023-03-21T10:20:21.504Z,101316.34
2023-03-21T10:22:54.944Z,101317.91
2023-03-21T10:25:30.092Z,101319.41
2023-03-21T10:27:59.639Z,101306.16
2023-03-21T10:30:48.965Z,101313.00
2023-03-21T10:33:26.607Z,101315.88
2023-03-21T10:36:02.595Z,101315.94
2023-03-21T10:38:30.784Z,101312.72
2023-03-21T10:40:58.312Z,101316.03
2023-03-21T10:43:26.199Z,101305.53
2023-03-21T10:45:57.643Z,101305.56
2023-03-21T10:48:26.802Z,101302.47
2023-03-21T10:50:56.250Z,101307.13
2023-03-21T10:53:38.222Z,101297.09
2023-03-21T10:56:10.240Z,101295.19
2023-03-21T10:58:46.961Z,101304.81
2023-03-21T11:01:26.116Z,101301.78
2023-03-21T11:03:59.559Z,101301.22
2023-03-21T11:06:31.802Z,101301.81
2023-03-21T11:09:08.409Z,101300.53
2023-03-21T11:12:01.766Z,101302.22
2023-03-21T11:14:40.705Z,101300.44
2023-03-21T11:17:17.192Z,101300.28
2023-03-21T11:19:49.477Z,101302.28
2023-03-21T11:22:18.919Z,101297.81
2023-03-21T11:24:52.970Z,101298.16
2023-03-21T11:27:21.241Z,101301.31
2023-03-21T11:29:51.221Z,101298.22
2023-03-21T11:32:26.387Z,101290.63
2023-03-21T11:35:23.769Z,101294.03
2023-03-21T11:37:57.639Z,101291.50
2023-03-21T11:40:29.239Z,101287.53
2023-03-21T11:42:57.604Z,101282.84
2023-03-21T11:45:26.540Z,101285.38
2023-03-21T11:47:56.584Z,101283.25
2023-03-21T11:50:46.842Z,101278.91
2023-03-21T11:53:31.943Z,101284.66
2023-03-21T11:56:25.942Z,101285.66
2023-03-21T11:58:53.311Z,101272.00
2023-03-21T12:01:42.422Z,101278.16
2023-03-21T12:04:31.964Z,101267.84
2023-03-21T12:07:11.238Z,101263.53
2023-03-21T12:09:42.211Z,101263.56
2023-03-21T12:12:38.254Z,101265.78
2023-03-21T12:15:32.091Z,101256.91
2023-03-21T12:18:20.714Z,101253.44
2023-03-21T12:21:02.192Z,101252.16
2023-03-21T12:23:46.834Z,101249.94
2023-03-21T12:26:39.789Z,101254.16
2023-03-21T12:29:26.417Z,101251.34
2023-03-21T12:32:29.324Z,101246.78
2023-03-21T12:35:35.053Z,101241.13
2023-03-21T12:38:08.347Z,101242.03
2023-03-21T12:40:44.469Z,101242.69
2023-03-21T12:43:38.686Z,101244.56
2023-03-21T12:46:22.767Z,101231.41
2023-03-21T12:48:58.728Z,101231.88
2023-03-21T12:51:32.816Z,101236.25
2023-03-21T12:54:08.936Z,101228.72
2023-03-21T12:56:53.063Z,101225.59
2023-03-21T12:59:25.386Z,101226.75
2023-03-21T13:01:58.155Z,101220.41
2023-03-21T13:05:00.171Z,101218.09
2023-03-21T13:07:36.098Z,101220.97
2023-03-21T13:10:13.967Z,101216.16
2023-03-21T13:12:50.467Z,101219.78
2023-03-21T13:15:30.083Z,101218.44
2023-03-21T13:18:12.680Z,101219.03
2023-03-21T13:20:50.469Z,101223.06
2023-03-21T13:23:22.460Z,101222.75
2023-03-21T13:25:55.200Z,101220.09
2023-03-21T13:28:31.693Z,101221.09
2023-03-21T13:31:30.512Z,101213.31
2023-03-21T13:34:00.255Z,101198.56
2023-03-21T13:36:32.211Z,101203.59
2023-03-21T13:39:02.676Z,101206.56
2023-03-21T13:41:32.466Z,101210.09
2023-03-21T13:44:02.883Z,101202.38
2023-03-21T13:46:34.186Z,101195.72
2023-03-21T13:49:11.005Z,101194.44
2023-03-21T13:51:43.943Z,101194.72
2023-03-21T13:54:15.766Z,101191.66
2023-03-21T13:56:50.280Z,101184.06
2023-03-21T13:59:33.000Z,101187.28
2023-03-21T14:02:04.072Z,101186.63
2023-03-21T14:04:41.906Z,101194.31
2023-03-21T14:07:23.259Z,101182.44
2023-03-21T14:09:54.189Z,101186.31
2023-03-21T14:12:28.672Z,101184.91
2023-03-21T14:15:19.011Z,101174.44
2023-03-21T14:17:58.788Z,101181.59
2023-03-21T14:20:42.152Z,101184.81
2023-03-21T14:23:15.707Z,101183.81
2023-03-21T14:25:47.799Z,101185.69
2023-03-21T14:28:15.447Z,101179.44
2023-03-21T14:30:44.932Z,101179.88
2023-03-21T14:33:31.358Z,101175.66
2023-03-21T14:36:02.049Z,101174.63
2023-03-21T14:38:36.641Z,101177.59
2023-03-21T14:41:05.811Z,101178.72
2023-03-21T14:43:38.417Z,101173.13
2023-03-21T14:46:06.647Z,101173.94
2023-03-21T14:48:35.422Z,101175.13
2023-03-21T14:51:12.515Z,101178.59
2023-03-21T14:53:42.675Z,101168.19
2023-03-21T14:56:22.115Z,101175.84
2023-03-21T14:58:54.094Z,101184.84
2023-03-21T15:01:34.958Z,101182.22
2023-03-21T15:04:06.479Z,101181.09
2023-03-21T15:06:52.977Z,101181.41
2023-03-21T15:09:23.650Z,101187.09
2023-03-21T15:11:52.930Z,101171.91
2023-03-21T15:14:26.767Z,101178.56
2023-03-21T15:16:56.371Z,101179.50
2023-03-21T15:19:30.253Z,101184.50
2023-03-21T15:22:27.543Z,101182.16
2023-03-21T15:25:02.312Z,101180.47
2023-03-21T15:27:34.851Z,101184.31
2023-03-21T15:30:02.330Z,101180.59
2023-03-21T15:32:37.068Z,101179.03
2023-03-21T15:35:08.281Z,101176.06
2023-03-21T15:37:37.780Z,101174.16
2023-03-21T15:40:12.052Z,101172.59
2023-03-21T15:42:41.786Z,101179.53
2023-03-21T15:45:30.501Z,101190.38
2023-03-21T15:48:03.146Z,101194.25
2023-03-21T15:50:33.810Z,101185.25
2023-03-21T15:53:05.831Z,101188.25
2023-03-21T15:55:48.408Z,101193.94
2023-03-21T15:58:21.148Z,101196.50
2023-03-21T16:00:55.550Z,101193.34
2023-03-21T16:03:27.391Z,101195.25
2023-03-21T16:06:14.443Z,101194.25
2023-03-21T16:08:46.820Z,101199.53
2023-03-21T16:11:25.669Z,101193.53
2023-03-21T16:13:54.750Z,101195.59
2023-03-21T16:16:25.040Z,101199.97
2023-03-21T16:19:01.792Z,101196.47
2023-03-21T16:21:31.747Z,101199.81
2023-03-21T16:23:59.134Z,101199.66
2023-03-21T16:26:32.791Z,101202.69
2023-03-21T16:29:00.458Z,101202.38
2023-03-21T16:31:31.064Z,101208.25
2023-03-21T16:33:59.860Z,101213.13
2023-03-21T16:36:31.713Z,101215.78
2023-03-21T16:39:17.935Z,101203.03
2023-03-21T16:41:45.835Z,101215.63
2023-03-21T16:44:13.748Z,101219.16
2023-03-21T16:46:42.745Z,101222.81
2023-03-21T16:49:28.299Z,101226.03
2023-03-21T16:51:59.157Z,101230.88
2023-03-21T16:54:27.131Z,101230.53
2023-03-21T16:56:55.827Z,101234.53
2023-03-21T16:59:23.227Z,101226.16
2023-03-21T17:01:51.201Z,101228.84
2023-03-21T17:04:19.445Z,101224.09
2023-03-21T17:06:49.607Z,101231.16
2023-03-21T17:09:20.091Z,101227.78
2023-03-21T17:11:52.851Z,101232.31
2023-03-21T17:14:21.661Z,101240.47
2023-03-21T17:16:49.333Z,101229.53
2023-03-21T17:19:20.245Z,101231.25
2023-03-21T17:21:47.798Z,101235.91
2023-03-21T17:24:15.730Z,101230.69
2023-03-21T17:26:43.920Z,101232.53
2023-03-21T17:29:14.044Z,101239.72
2023-03-21T17:31:47.514Z,101230.78
2023-03-21T17:34:15.526Z,101228.94
2023-03-21T17:36:46.367Z,101232.31
2023-03-21T17:39:19.647Z,101232.94
2023-03-21T17:41:47.361Z,101235.59
2023-03-21T17:44:15.048Z,101237.66
2023-03-21T17:46:42.846Z,101230.53
2023-03-21T17:49:16.121Z,101244.91
2023-03-21T17:51:46.869Z,101239.19
2023-03-21T17:54:14.397Z,101237.81
2023-03-21T17:56:42.238Z,101241.16
2023-03-21T17:59:13.711Z,101238.72
2023-03-21T18:01:45.868Z,101241.91
2023-03-21T18:04:13.349Z,101234.66
2023-03-21T18:06:41.192Z,101238.59
2023-03-21T18:09:13.744Z,101245.94
2023-03-21T18:11:41.589Z,101240.63
2023-03-21T18:14:17.664Z,101245.56
2023-03-21T18:16:47.566Z,101236.84
2023-03-21T18:19:15.383Z,101238.06
2023-03-21T18:21:47.693Z,101242.69
2023-03-21T18:24:15.944Z,101237.19
2023-03-21T18:26:44.314Z,101239.63
2023-03-21T18:32:07.538Z,101249.25
2023-03-21T18:34:38.940Z,101241.44
2023-03-21T18:37:08.650Z,101249.47
2023-03-21T18:39:37.227Z,101253.09
2023-03-21T18:42:06.582Z,101252.00
2023-03-21T18:44:38.982Z,101256.50
2023-03-21T18:47:07.776Z,101256.28
2023-03-21T18:52:24.241Z,101253.50
2023-03-21T18:54:52.965Z,101259.91
2023-03-21T18:57:35.764Z,101254.81
2023-03-21T19:00:17.574Z,101254.75
2023-03-21T19:02:48.359Z,101257.91
2023-03-21T19:05:23.385Z,101262.34
2023-03-21T19:07:52.205Z,101261.91
2023-03-21T19:10:21.997Z,101256.88
2023-03-21T19:12:53.134Z,101265.19
2023-03-21T19:15:22.087Z,101258.28
2023-03-21T19:18:33.962Z,101250.75
2023-03-21T19:20:46.982Z,101259.41
2023-03-21T19:23:17.231Z,101259.75
2023-03-21T19:25:45.261Z,101254.97
2023-03-21T19:28:12.699Z,101255.97
2023-03-21T19:30:49.126Z,101268.22
2023-03-21T19:33:24.666Z,101263.72
2023-03-21T19:36:10.873Z,101258.63
2023-03-21T19:38:39.879Z,101257.41
2023-03-21T19:41:07.680Z,101261.47
2023-03-21T19:43:35.326Z,101254.31
2023-03-21T19:46:05.237Z,101258.38
2023-03-21T19:48:34.488Z,101270.19
2023-03-21T19:53:51.959Z,101258.66
2023-03-21T19:56:23.011Z,101260.88
2023-03-21T19:58:52.433Z,101271.41
2023-03-21T20:01:20.290Z,101257.38
2023-03-21T20:03:47.782Z,101266.22
2023-03-21T20:06:16.751Z,101257.53
2023-03-21T20:11:31.968Z,101264.88
2023-03-21T20:14:03.240Z,101263.31
2023-03-21T20:16:35.159Z,101255.84
2023-03-21T20:19:09.121Z,101256.16
2023-03-21T20:21:48.232Z,101245.47
2023-03-21T20:24:20.740Z,101244.50
2023-03-21T20:26:49.575Z,101243.22
2023-03-21T20:30:07.103Z,101238.72
2023-03-21T20:32:05.126Z,101242.66
2023-03-21T20:34:33.087Z,101238.69
2023-03-21T20:37:01.624Z,101244.31
2023-03-21T20:39:30.034Z,101246.97
2023-03-21T20:41:59.412Z,101245.28
2023-03-21T20:44:51.850Z,101241.75
2023-03-21T20:47:16.017Z,101246.13
2023-03-21T20:49:43.423Z,101245.34
2023-03-21T20:54:58.780Z,101257.56
2023-03-21T20:57:28.118Z,101250.59
2023-03-21T20:59:56.478Z,101243.84
2023-03-21T21:02:26.666Z,101247.94
2023-03-21T21:05:24.301Z,101244.28
2023-03-21T21:07:43.103Z,101252.44
2023-03-21T21:10:14.177Z,101258.59
2023-03-21T21:12:45.378Z,101251.44
2023-03-21T21:15:16.746Z,101253.94
2023-03-21T21:18:04.715Z,101255.22
2023-03-21T21:20:34.115Z,101249.63
2023-03-21T21:23:02.068Z,101254.41
2023-03-21T21:25:33.167Z,101267.91
2023-03-21T21:28:02.034Z,101263.16
2023-03-21T21:30:31.725Z,101262.31
2023-03-21T21:33:01.030Z,101266.38
2023-03-21T21:35:28.668Z,101272.97
2023-03-21T21:37:57.197Z,101271.66
2023-03-21T21:40:25.801Z,101275.47
2023-03-21T21:42:53.179Z,101279.13
2023-03-21T21:45:20.849Z,101283.41
2023-03-21T21:47:48.861Z,101294.69
2023-03-21T21:50:16.612Z,101288.03
2023-03-21T21:52:44.128Z,101286.81
2023-03-21T21:55:13.343Z,101285.25
2023-03-21T21:57:41.129Z,101290.06
2023-03-21T22:00:13.726Z,101293.06
2023-03-21T22:02:41.690Z,101285.84
2023-03-21T22:05:10.599Z,101285.63
2023-03-21T22:07:42.033Z,101279.00
2023-03-21T22:10:10.078Z,101268.44
2023-03-21T22:12:37.680Z,101275.97
2023-03-21T22:15:07.330Z,101273.72
2023-03-21T22:17:37.656Z,101274.38
2023-03-21T22:20:12.768Z,101283.03
2023-03-21T22:22:41.960Z,101274.06
2023-03-21T22:25:12.392Z,101278.69
2023-03-21T22:27:40.562Z,101273.34
2023-03-21T22:30:13.912Z,101279.66
2023-03-21T22:33:06.289Z,101283.69
2023-03-21T22:35:34.068Z,101291.28
2023-03-21T22:38:01.592Z,101283.44
2023-03-21T22:40:29.905Z,101282.66
2023-03-21T22:42:59.544Z,101286.88
2023-03-21T22:45:27.614Z,101285.81
2023-03-21T22:47:55.035Z,101277.63
2023-03-21T22:50:22.800Z,101277.31
2023-03-21T22:52:50.114Z,101279.66
2023-03-21T22:55:17.540Z,101284.53
2023-03-21T22:57:46.206Z,101288.25
2023-03-21T23:00:14.159Z,101280.97
2023-03-21T23:02:42.727Z,101284.97
2023-03-21T23:05:11.044Z,101277.09
2023-03-21T23:07:40.294Z,101270.56
2023-03-21T23:10:09.014Z,101265.75
2023-03-21T23:12:37.658Z,101262.38
2023-03-21T23:15:10.265Z,101269.59
2023-03-21T23:17:39.002Z,101269.13
2023-03-21T23:20:07.944Z,101271.16
2023-03-21T23:22:39.064Z,101268.16
2023-03-21T23:25:07.631Z,101277.00
2023-03-21T23:27:35.823Z,101274.53
2023-03-21T23:30:07.794Z,101272.25
2023-03-21T23:32:36.214Z,101272.97
2023-03-21T23:35:13.477Z,101271.81
2023-03-21T23:37:50.129Z,101268.72
2023-03-21T23:40:18.380Z,101276.88
2023-03-21T23:42:46.571Z,101266.22
2023-03-21T23:45:14.426Z,101263.28
2023-03-21T23:47:43.105Z,101275.91
2023-03-21T23:50:11.745Z,101270.03
2023-03-21T23:52:42.205Z,101265.22
2023-03-21T23:55:10.163Z,101268.28
2023-03-21T23:57:41.923Z,101273.22
